FBSK/GBE METAR and TAF weather

Enter ICAO airport designator
Station Type Date Time Source
FBSK METAR 2020/04/04 20:00 UTC NOAA

FBSK 042000Z 18004KT CAVOK 18/12 Q1020 NOSIG


Station Type Date Time Source
FBSK Decoded METAR 2020/04/04 20:00 UTC NOAA

Seretse Khama International Airport, Botswana (FBSK) 24-13S 025-55E 1005M
Apr 04, 2020 - 04:00 PM EDT / 2020.04.04 2000 UTC
Wind: from the S (180 degrees) at 5 MPH (4 KT):0
Visibility: greater than 7 mile(s):0
Temperature: 64 F (18 C)
Dew Point: 53 F (12 C)
Relative Humidity: 67%
Pressure (altimeter): 30.12 in. Hg (1020 hPa)
ob: FBSK 042000Z 18004KT CAVOK 18/12 Q1020 NOSIG
cycle: 20

Station Type Date Time Source
FBSK TAF 2020/04/04 18:06 UTC NOAA

TAF TAF FBSK 041500Z 0418/0524 VRB03KT 9999 FEW035CB
BECMG 0418/0420 CAVOK
BECMG 0502/0504 SCT025

Example: see airport list